createdAt,value
2016-10-16T00:00:01.092Z,0
2016-10-16T00:00:41.680Z,0
2016-10-16T00:01:22.266Z,0
2016-10-16T00:02:02.848Z,0
2016-10-16T00:02:43.429Z,0
2016-10-16T00:03:24.015Z,0
2016-10-16T00:04:04.598Z,0
2016-10-16T00:04:45.176Z,0
2016-10-16T00:05:25.761Z,0
2016-10-16T00:06:06.347Z,0
2016-10-16T00:06:46.920Z,0
2016-10-16T00:07:27.511Z,0
2016-10-16T00:08:08.087Z,0
2016-10-16T00:08:48.668Z,0
2016-10-16T00:09:29.249Z,0
2016-10-16T00:10:09.832Z,0
2016-10-16T00:10:50.424Z,0
2016-10-16T00:11:31.006Z,0
2016-10-16T00:12:11.588Z,0
2016-10-16T00:12:52.170Z,0
2016-10-16T00:13:32.757Z,0
2016-10-16T00:14:13.336Z,0
2016-10-16T00:14:53.921Z,0
2016-10-16T00:15:34.505Z,0
2016-10-16T00:16:15.083Z,0
2016-10-16T00:16:55.657Z,0
2016-10-16T00:17:36.244Z,0
2016-10-16T00:18:16.828Z,0
2016-10-16T00:18:57.409Z,0
2016-10-16T00:19:37.991Z,0
2016-10-16T00:20:18.563Z,0
2016-10-16T00:20:59.143Z,0
2016-10-16T00:21:39.724Z,0
2016-10-16T00:22:20.307Z,0
2016-10-16T00:23:00.895Z,0
2016-10-16T00:23:41.479Z,0
2016-10-16T00:24:22.058Z,0
2016-10-16T00:25:02.641Z,0
2016-10-16T00:25:43.219Z,0
2016-10-16T00:26:23.794Z,0
2016-10-16T00:27:04.370Z,0
2016-10-16T00:27:44.954Z,0
2016-10-16T00:28:25.533Z,0
2016-10-16T00:29:06.110Z,0
2016-10-16T00:29:46.689Z,0
2016-10-16T00:30:27.267Z,0
2016-10-16T00:31:07.852Z,0
2016-10-16T00:31:48.425Z,0
2016-10-16T00:32:29.005Z,0
2016-10-16T00:33:09.584Z,0
2016-10-16T00:33:50.164Z,0
2016-10-16T00:34:30.745Z,0
2016-10-16T00:35:11.326Z,0
2016-10-16T00:35:51.907Z,0
2016-10-16T00:36:32.485Z,0
2016-10-16T00:37:13.071Z,0
2016-10-16T00:37:53.656Z,0
2016-10-16T00:38:34.236Z,0
2016-10-16T00:39:14.817Z,0
2016-10-16T00:39:55.397Z,0
2016-10-16T00:40:35.978Z,0
2016-10-16T00:41:16.560Z,0
2016-10-16T00:41:57.143Z,0
2016-10-16T00:42:37.729Z,0
2016-10-16T00:43:18.309Z,0
2016-10-16T00:43:58.892Z,0
2016-10-16T00:44:39.467Z,0
2016-10-16T00:45:20.059Z,0
2016-10-16T00:46:00.642Z,0
2016-10-16T00:46:41.223Z,0
2016-10-16T00:47:21.797Z,0
2016-10-16T00:48:02.380Z,0
2016-10-16T00:48:42.961Z,0
2016-10-16T00:49:23.545Z,0
2016-10-16T00:50:04.126Z,0
2016-10-16T00:50:44.711Z,0
2016-10-16T00:51:25.295Z,0
2016-10-16T00:52:05.877Z,0
2016-10-16T00:52:46.462Z,0
2016-10-16T00:53:27.044Z,0
2016-10-16T00:54:07.625Z,0
2016-10-16T00:54:48.205Z,0
2016-10-16T00:55:28.788Z,0
2016-10-16T00:56:09.368Z,0
2016-10-16T00:56:49.955Z,0
2016-10-16T00:57:30.538Z,0
2016-10-16T00:58:11.119Z,0
2016-10-16T00:58:51.703Z,0
2016-10-16T00:59:32.282Z,0
2016-10-16T01:00:12.856Z,0
2016-10-16T01:00:53.443Z,0
2016-10-16T01:01:34.019Z,0
2016-10-16T01:02:14.604Z,0
2016-10-16T01:02:55.189Z,0
2016-10-16T01:03:35.769Z,0
2016-10-16T01:04:16.351Z,0
2016-10-16T01:04:56.931Z,0
2016-10-16T01:05:37.517Z,0
2016-10-16T01:06:18.103Z,0
2016-10-16T01:06:58.681Z,0
2016-10-16T01:07:39.261Z,0
2016-10-16T01:08:19.841Z,0
2016-10-16T01:09:00.405Z,0
2016-10-16T01:09:40.977Z,0
2016-10-16T01:10:21.562Z,0
2016-10-16T01:11:02.140Z,0
2016-10-16T01:11:42.720Z,0
2016-10-16T01:12:23.299Z,0
2016-10-16T01:13:03.878Z,0
2016-10-16T01:13:44.459Z,0
2016-10-16T01:14:25.039Z,0
2016-10-16T01:15:05.621Z,0
2016-10-16T01:15:46.206Z,0
2016-10-16T01:16:26.788Z,0
2016-10-16T01:17:07.368Z,0
2016-10-16T01:17:47.952Z,0
2016-10-16T01:18:28.533Z,0
2016-10-16T01:19:09.114Z,0
2016-10-16T01:19:49.696Z,0
2016-10-16T01:20:30.278Z,0
2016-10-16T01:21:10.847Z,0
2016-10-16T01:21:51.428Z,0
2016-10-16T01:22:32.008Z,0
2016-10-16T01:23:12.602Z,0
2016-10-16T01:23:53.181Z,0
2016-10-16T01:24:33.752Z,0
2016-10-16T01:25:14.336Z,0
2016-10-16T01:25:54.915Z,0
2016-10-16T01:26:35.496Z,0
2016-10-16T01:27:16.083Z,0
2016-10-16T01:27:56.666Z,0
2016-10-16T01:28:37.249Z,0
2016-10-16T01:29:17.830Z,0
2016-10-16T01:29:58.416Z,0
2016-10-16T01:30:38.999Z,0
2016-10-16T01:31:19.579Z,0
2016-10-16T01:32:00.164Z,0
2016-10-16T01:32:40.744Z,0
2016-10-16T01:33:21.312Z,0
2016-10-16T01:34:01.893Z,0
2016-10-16T01:34:42.476Z,0
2016-10-16T01:35:23.057Z,0
2016-10-16T01:36:03.635Z,0
2016-10-16T01:36:44.218Z,0
2016-10-16T01:37:24.800Z,0
2016-10-16T01:38:05.384Z,0
2016-10-16T01:38:45.970Z,0
2016-10-16T01:39:26.549Z,0
2016-10-16T01:40:07.133Z,0
2016-10-16T01:40:47.713Z,0
2016-10-16T01:41:28.293Z,0
2016-10-16T01:42:08.878Z,0
2016-10-16T01:42:49.459Z,0
2016-10-16T01:43:30.040Z,0
2016-10-16T01:44:10.623Z,0
2016-10-16T01:44:51.206Z,0
2016-10-16T01:45:31.795Z,0
2016-10-16T01:46:12.373Z,0
2016-10-16T01:46:52.954Z,0
2016-10-16T01:47:33.533Z,0
2016-10-16T01:48:14.113Z,0
2016-10-16T01:48:54.695Z,0
2016-10-16T01:49:35.268Z,0
2016-10-16T01:50:15.852Z,0
2016-10-16T01:50:56.431Z,0
2016-10-16T01:51:37.022Z,0
2016-10-16T01:52:17.606Z,0
2016-10-16T01:52:58.187Z,0
2016-10-16T01:53:38.775Z,0
2016-10-16T01:54:19.359Z,0
2016-10-16T01:54:59.936Z,0
2016-10-16T01:55:40.519Z,0
2016-10-16T01:56:21.094Z,0
2016-10-16T01:57:01.677Z,0
2016-10-16T01:57:42.259Z,0
2016-10-16T01:58:22.840Z,0
2016-10-16T01:59:03.666Z,0
2016-10-16T01:59:44.251Z,0
2016-10-16T02:00:24.833Z,0
2016-10-16T02:01:05.418Z,0
2016-10-16T02:01:46.001Z,0
2016-10-16T02:02:26.581Z,0
2016-10-16T02:03:07.159Z,0
2016-10-16T02:03:47.742Z,0
2016-10-16T02:04:28.321Z,0
2016-10-16T02:05:08.901Z,0
2016-10-16T02:05:49.482Z,0
2016-10-16T02:06:30.062Z,0
2016-10-16T02:07:10.648Z,0
2016-10-16T02:07:51.233Z,0
2016-10-16T02:08:31.815Z,0
2016-10-16T02:09:12.400Z,0
2016-10-16T02:09:52.983Z,0
2016-10-16T02:10:33.562Z,0
2016-10-16T02:11:14.144Z,0
2016-10-16T02:11:54.724Z,0
2016-10-16T02:12:35.308Z,0
2016-10-16T02:13:15.889Z,0
2016-10-16T02:13:56.474Z,0
2016-10-16T02:14:37.056Z,0
2016-10-16T02:15:17.634Z,0
2016-10-16T02:15:58.197Z,0
2016-10-16T02:16:38.782Z,0
2016-10-16T02:17:19.367Z,0
2016-10-16T02:17:59.950Z,0
2016-10-16T02:18:40.531Z,0
2016-10-16T02:19:21.111Z,0
2016-10-16T02:20:01.696Z,0
2016-10-16T02:20:42.281Z,0
2016-10-16T02:21:22.866Z,0
2016-10-16T02:22:03.445Z,0
2016-10-16T02:22:44.022Z,0
2016-10-16T02:23:24.604Z,0
2016-10-16T02:24:05.183Z,0
2016-10-16T02:24:45.761Z,0
2016-10-16T02:25:26.342Z,0
2016-10-16T02:26:06.921Z,0
2016-10-16T02:26:47.512Z,0
2016-10-16T02:27:28.097Z,0
2016-10-16T02:28:08.672Z,0
2016-10-16T02:28:49.255Z,0
2016-10-16T02:29:29.831Z,0
2016-10-16T02:30:10.412Z,0
2016-10-16T02:30:50.993Z,0
2016-10-16T02:31:31.576Z,0
2016-10-16T02:32:12.159Z,0
2016-10-16T02:32:52.746Z,0
2016-10-16T02:33:33.324Z,0
2016-10-16T02:34:13.905Z,0
2016-10-16T02:34:54.486Z,0
2016-10-16T02:35:35.072Z,0
2016-10-16T02:36:15.657Z,0
2016-10-16T02:36:56.235Z,0
2016-10-16T02:37:36.820Z,0
2016-10-16T02:38:17.402Z,0
2016-10-16T02:38:57.978Z,0
2016-10-16T02:39:38.564Z,0
2016-10-16T02:40:19.145Z,0
2016-10-16T02:40:59.727Z,0
2016-10-16T02:41:40.311Z,0
2016-10-16T02:42:20.893Z,0
2016-10-16T02:43:01.476Z,0
2016-10-16T02:43:42.058Z,0
2016-10-16T02:44:22.638Z,0
2016-10-16T02:45:03.222Z,0
2016-10-16T02:45:43.806Z,0
2016-10-16T02:46:24.390Z,0
2016-10-16T02:47:04.976Z,0
2016-10-16T02:47:45.548Z,0
2016-10-16T02:48:26.143Z,0
2016-10-16T02:49:06.728Z,0
2016-10-16T02:49:47.309Z,0
2016-10-16T02:50:27.890Z,0
2016-10-16T02:51:08.472Z,0
2016-10-16T02:51:49.055Z,0
2016-10-16T02:52:29.639Z,0
2016-10-16T02:53:10.223Z,0
2016-10-16T02:53:50.804Z,0
2016-10-16T02:54:31.381Z,0
2016-10-16T02:55:11.952Z,0
2016-10-16T02:55:52.540Z,0
2016-10-16T02:56:33.112Z,0
2016-10-16T02:57:13.682Z,0
2016-10-16T02:57:54.263Z,0
2016-10-16T02:58:34.836Z,0
2016-10-16T02:59:15.418Z,0
2016-10-16T02:59:55.999Z,0
2016-10-16T03:00:36.574Z,0
2016-10-16T03:01:17.160Z,0
2016-10-16T03:01:57.737Z,0
2016-10-16T03:02:38.319Z,0
2016-10-16T03:03:18.895Z,0
2016-10-16T03:03:59.475Z,0
2016-10-16T03:04:40.048Z,0
2016-10-16T03:05:20.631Z,0
2016-10-16T03:06:01.214Z,0
2016-10-16T03:06:41.791Z,0
2016-10-16T03:07:22.373Z,0
2016-10-16T03:08:02.951Z,0
2016-10-16T03:08:43.525Z,0
2016-10-16T03:09:24.107Z,0
2016-10-16T03:10:04.691Z,0
2016-10-16T03:10:45.271Z,0
2016-10-16T03:11:25.850Z,0
2016-10-16T03:12:06.451Z,0
2016-10-16T03:12:47.009Z,0
2016-10-16T03:13:27.593Z,0
2016-10-16T03:14:08.177Z,0
2016-10-16T03:14:48.758Z,0
2016-10-16T03:15:29.341Z,0
2016-10-16T03:16:09.926Z,0
2016-10-16T03:16:50.513Z,0
2016-10-16T03:17:31.092Z,0
2016-10-16T03:18:11.671Z,0
2016-10-16T03:18:52.251Z,0
2016-10-16T03:19:32.834Z,0
2016-10-16T03:20:13.410Z,0
2016-10-16T03:20:53.989Z,0
2016-10-16T03:21:34.572Z,0
2016-10-16T03:22:15.147Z,0
2016-10-16T03:22:55.726Z,0
2016-10-16T03:23:36.306Z,0
2016-10-16T03:24:16.890Z,0
2016-10-16T03:24:57.473Z,0
2016-10-16T03:25:38.054Z,0
2016-10-16T03:26:18.637Z,0
2016-10-16T03:26:59.220Z,0
2016-10-16T03:27:39.801Z,0
2016-10-16T03:28:20.374Z,0
2016-10-16T03:29:00.958Z,0
2016-10-16T03:29:41.535Z,0
2016-10-16T03:30:22.114Z,0
2016-10-16T03:31:02.695Z,0
2016-10-16T03:31:43.281Z,0
2016-10-16T03:32:23.867Z,0
2016-10-16T03:33:04.451Z,0
2016-10-16T03:33:45.030Z,0
2016-10-16T03:34:25.609Z,0
2016-10-16T03:35:06.186Z,0
2016-10-16T03:35:46.764Z,0
2016-10-16T03:36:27.347Z,0
2016-10-16T03:37:07.926Z,0
2016-10-16T03:37:48.505Z,0
2016-10-16T03:38:29.085Z,0
2016-10-16T03:39:09.670Z,0
2016-10-16T03:39:50.247Z,0
2016-10-16T03:40:30.834Z,0
2016-10-16T03:41:11.416Z,0
2016-10-16T03:41:52.177Z,0
2016-10-16T03:42:32.942Z,0
2016-10-16T03:43:13.704Z,0
2016-10-16T03:43:54.743Z,0
2016-10-16T03:44:35.503Z,0
2016-10-16T03:45:16.087Z,0
2016-10-16T03:45:56.859Z,0
2016-10-16T03:46:37.746Z,0
2016-10-16T03:47:18.330Z,0
2016-10-16T03:47:59.009Z,0
2016-10-16T03:48:39.594Z,0
2016-10-16T03:49:20.177Z,0
2016-10-16T03:50:00.781Z,0
2016-10-16T03:50:41.601Z,0
2016-10-16T03:51:22.372Z,0
2016-10-16T03:52:02.955Z,0
2016-10-16T03:52:43.668Z,0
2016-10-16T03:53:24.253Z,0
2016-10-16T03:54:04.836Z,0
2016-10-16T03:54:45.750Z,0
2016-10-16T03:55:26.748Z,0
2016-10-16T03:56:07.444Z,0
2016-10-16T03:56:49.152Z,0
2016-10-16T03:57:29.871Z,0
2016-10-16T03:58:10.636Z,0
2016-10-16T03:58:51.553Z,0
2016-10-16T03:59:32.412Z,0
2016-10-16T04:00:13.069Z,0
2016-10-16T04:00:54.028Z,0
2016-10-16T04:01:34.693Z,0
2016-10-16T04:02:15.625Z,0
2016-10-16T04:02:56.497Z,0
2016-10-16T04:03:37.193Z,0
2016-10-16T04:04:18.049Z,0
2016-10-16T04:04:59.132Z,0
2016-10-16T04:05:40.018Z,0
2016-10-16T04:06:20.964Z,0
2016-10-16T04:07:01.568Z,0
2016-10-16T04:07:42.291Z,0
2016-10-16T04:08:23.216Z,0
2016-10-16T04:09:03.795Z,0
2016-10-16T04:09:44.491Z,0
2016-10-16T04:10:25.069Z,0
2016-10-16T04:11:05.659Z,0
2016-10-16T04:11:46.235Z,0
2016-10-16T04:12:26.817Z,0
2016-10-16T04:13:07.394Z,0
2016-10-16T04:13:47.965Z,0
2016-10-16T04:14:28.552Z,0
2016-10-16T04:15:09.132Z,0
2016-10-16T04:15:49.710Z,0
2016-10-16T04:16:30.292Z,0
2016-10-16T04:17:11.112Z,0
2016-10-16T04:17:51.701Z,0
2016-10-16T04:18:32.292Z,0
2016-10-16T04:19:12.868Z,0
2016-10-16T04:19:53.500Z,0
2016-10-16T04:20:34.128Z,0
2016-10-16T04:21:14.700Z,0
2016-10-16T04:21:55.281Z,0
2016-10-16T04:22:35.875Z,0
2016-10-16T04:23:16.467Z,0
2016-10-16T04:23:57.053Z,0
2016-10-16T04:24:37.645Z,0
2016-10-16T04:25:18.226Z,0
2016-10-16T04:25:58.857Z,0
2016-10-16T04:26:39.442Z,0
2016-10-16T04:27:20.031Z,0
2016-10-16T04:28:00.618Z,0
2016-10-16T04:28:41.232Z,0
2016-10-16T04:29:21.819Z,0
2016-10-16T04:30:02.423Z,0
2016-10-16T04:30:43.023Z,0
2016-10-16T04:31:23.600Z,0
2016-10-16T04:32:04.223Z,0
2016-10-16T04:32:44.826Z,0
2016-10-16T04:33:25.415Z,0
2016-10-16T04:34:06.030Z,0
2016-10-16T04:34:46.754Z,0
2016-10-16T04:35:27.230Z,0
2016-10-16T04:36:07.843Z,0
2016-10-16T04:36:48.436Z,0
2016-10-16T04:37:29.024Z,0
2016-10-16T04:38:09.606Z,0
2016-10-16T04:38:50.189Z,0
2016-10-16T04:39:30.769Z,0
2016-10-16T04:40:11.366Z,0
2016-10-16T04:40:51.980Z,0
2016-10-16T04:41:32.571Z,0
2016-10-16T04:42:13.202Z,0
2016-10-16T04:42:53.777Z,0
2016-10-16T04:43:34.354Z,0
2016-10-16T04:44:14.935Z,0
2016-10-16T04:44:55.506Z,0
2016-10-16T04:45:36.091Z,0
2016-10-16T04:46:16.666Z,0
2016-10-16T04:46:57.249Z,0
2016-10-16T04:47:37.827Z,0
2016-10-16T04:48:18.447Z,0
2016-10-16T04:48:59.024Z,0
2016-10-16T04:49:39.605Z,0
2016-10-16T04:50:20.190Z,0
2016-10-16T04:51:00.777Z,0
2016-10-16T04:51:41.359Z,0
2016-10-16T04:52:21.951Z,0
2016-10-16T04:53:02.519Z,0
2016-10-16T04:53:43.114Z,0
2016-10-16T04:54:23.684Z,0
2016-10-16T04:55:04.283Z,0
2016-10-16T04:55:44.879Z,0
2016-10-16T04:56:25.478Z,0
2016-10-16T04:57:06.059Z,0
2016-10-16T04:57:46.642Z,0
2016-10-16T04:58:27.212Z,0
2016-10-16T04:59:07.796Z,0
2016-10-16T04:59:48.428Z,0
2016-10-16T05:00:29.033Z,0
2016-10-16T05:01:09.607Z,0
2016-10-16T05:01:50.179Z,0
2016-10-16T05:02:30.829Z,0
2016-10-16T05:03:11.435Z,0
2016-10-16T05:03:52.109Z,0
2016-10-16T05:04:32.707Z,0
2016-10-16T05:05:13.296Z,0
2016-10-16T05:05:53.869Z,0
2016-10-16T05:06:34.454Z,0
2016-10-16T05:07:15.220Z,0
2016-10-16T05:07:55.801Z,0
2016-10-16T05:08:36.379Z,0
2016-10-16T05:09:16.960Z,0
2016-10-16T05:09:57.544Z,0
2016-10-16T05:10:38.136Z,0
2016-10-16T05:11:18.715Z,0
2016-10-16T05:11:59.287Z,0
2016-10-16T05:12:39.872Z,0
2016-10-16T05:13:20.454Z,0
2016-10-16T05:14:01.033Z,0
2016-10-16T05:14:41.613Z,0
2016-10-16T05:15:22.195Z,0
2016-10-16T05:16:02.779Z,0
2016-10-16T05:16:43.510Z,0
2016-10-16T05:17:24.084Z,0
2016-10-16T05:18:04.915Z,0
2016-10-16T05:18:45.648Z,0
2016-10-16T05:19:26.322Z,0
2016-10-16T05:20:07.381Z,0
2016-10-16T05:20:48.073Z,0
2016-10-16T05:21:28.870Z,0
2016-10-16T05:22:09.442Z,0
2016-10-16T05:22:50.023Z,0
2016-10-16T05:23:30.942Z,0
2016-10-16T05:24:11.520Z,0
2016-10-16T05:24:52.328Z,0
2016-10-16T05:25:33.168Z,0
2016-10-16T05:26:13.752Z,0
2016-10-16T05:26:54.580Z,0
2016-10-16T05:27:35.563Z,0
2016-10-16T05:28:16.279Z,0
2016-10-16T05:28:56.864Z,0
2016-10-16T05:29:37.446Z,0
2016-10-16T05:30:18.208Z,0
2016-10-16T05:30:58.790Z,0
2016-10-16T05:31:39.737Z,0
2016-10-16T05:32:20.418Z,0
2016-10-16T05:33:01.165Z,0
2016-10-16T05:33:41.992Z,0
2016-10-16T05:34:22.753Z,0
2016-10-16T05:35:03.490Z,0
2016-10-16T05:35:44.501Z,0
2016-10-16T05:36:25.207Z,0
2016-10-16T05:37:06.223Z,0
2016-10-16T05:37:47.020Z,0
2016-10-16T05:38:27.731Z,0
2016-10-16T05:39:08.645Z,0
2016-10-16T05:39:49.300Z,0
2016-10-16T05:40:29.876Z,0
2016-10-16T05:41:10.655Z,0
2016-10-16T05:41:51.327Z,0
2016-10-16T05:42:32.062Z,0
2016-10-16T05:43:13.054Z,0
2016-10-16T05:43:53.852Z,0
2016-10-16T05:44:34.430Z,0
2016-10-16T05:45:15.367Z,0
2016-10-16T05:45:56.266Z,0
2016-10-16T05:46:36.882Z,0
2016-10-16T05:47:17.744Z,0
2016-10-16T05:47:58.334Z,0
2016-10-16T05:48:38.911Z,0
2016-10-16T05:49:19.484Z,0
2016-10-16T05:50:00.068Z,0
2016-10-16T05:50:40.653Z,0
2016-10-16T05:51:21.230Z,0
2016-10-16T05:52:01.812Z,0
2016-10-16T05:52:42.397Z,0
2016-10-16T05:53:22.981Z,0
2016-10-16T05:54:03.564Z,0
2016-10-16T05:54:44.153Z,0
2016-10-16T05:55:24.900Z,0
2016-10-16T05:56:05.486Z,0
2016-10-16T05:56:46.066Z,0
2016-10-16T05:57:26.640Z,0
2016-10-16T05:58:07.250Z,0
2016-10-16T05:58:47.833Z,0
2016-10-16T05:59:28.423Z,0
2016-10-16T06:00:09.006Z,0
2016-10-16T06:00:49.589Z,0
2016-10-16T06:01:30.170Z,0
2016-10-16T06:02:10.757Z,0
2016-10-16T06:02:51.340Z,0
2016-10-16T06:03:31.924Z,0
2016-10-16T06:04:12.502Z,0
2016-10-16T06:04:53.079Z,0
2016-10-16T06:05:33.661Z,0
2016-10-16T06:06:14.244Z,0
2016-10-16T06:06:54.827Z,0
2016-10-16T06:07:35.408Z,0
2016-10-16T06:08:15.994Z,0
2016-10-16T06:08:56.576Z,0
2016-10-16T06:09:37.153Z,0
2016-10-16T06:10:17.723Z,0
2016-10-16T06:10:58.308Z,0
2016-10-16T06:11:38.894Z,0
2016-10-16T06:12:19.475Z,0
2016-10-16T06:13:00.049Z,0
2016-10-16T06:13:40.636Z,0
2016-10-16T06:14:21.217Z,0
2016-10-16T06:15:01.803Z,0
2016-10-16T06:15:42.385Z,0
2016-10-16T06:16:22.963Z,0
2016-10-16T06:17:03.540Z,0
2016-10-16T06:17:44.123Z,0
2016-10-16T06:18:24.711Z,0
2016-10-16T06:19:05.292Z,0
2016-10-16T06:19:45.875Z,0
2016-10-16T06:20:26.455Z,0
2016-10-16T06:21:07.036Z,0
2016-10-16T06:21:47.618Z,0
2016-10-16T06:22:28.205Z,0
2016-10-16T06:23:08.776Z,40
2016-10-16T06:23:49.356Z,30
2016-10-16T06:24:29.944Z,30
2016-10-16T06:25:10.526Z,35
2016-10-16T06:25:51.104Z,35
2016-10-16T06:26:31.724Z,35
2016-10-16T06:27:12.318Z,35
2016-10-16T06:27:52.901Z,35
2016-10-16T06:28:33.828Z,40
2016-10-16T06:29:14.889Z,40
2016-10-16T06:29:55.622Z,40
2016-10-16T06:30:36.333Z,40
2016-10-16T06:31:17.481Z,40
2016-10-16T06:31:58.153Z,45
2016-10-16T06:32:38.855Z,45
2016-10-16T06:33:19.815Z,45
2016-10-16T06:34:00.877Z,45
2016-10-16T06:34:42.016Z,45
2016-10-16T06:35:22.750Z,50
2016-10-16T06:36:03.326Z,50
2016-10-16T06:36:43.909Z,50
2016-10-16T06:37:24.477Z,50
2016-10-16T06:38:05.064Z,55
2016-10-16T06:38:45.903Z,55
2016-10-16T06:39:26.819Z,55
2016-10-16T06:40:07.466Z,55
2016-10-16T06:40:48.205Z,60
2016-10-16T06:41:28.990Z,60
2016-10-16T06:42:09.736Z,60
2016-10-16T06:42:50.538Z,60
2016-10-16T06:43:31.186Z,60
2016-10-16T06:44:12.083Z,65
2016-10-16T06:44:52.835Z,65
2016-10-16T06:45:33.616Z,65
2016-10-16T06:46:14.547Z,65
2016-10-16T06:46:55.444Z,65
2016-10-16T06:47:36.083Z,70
2016-10-16T06:48:16.986Z,65
2016-10-16T06:48:57.965Z,65
2016-10-16T06:49:38.527Z,65
2016-10-16T06:50:19.322Z,65
2016-10-16T06:50:59.962Z,70
2016-10-16T06:51:40.720Z,70
2016-10-16T06:52:21.492Z,75
2016-10-16T06:53:02.279Z,75
2016-10-16T06:53:42.851Z,80
2016-10-16T06:54:23.504Z,80
2016-10-16T06:55:04.296Z,85
2016-10-16T06:55:45.920Z,85
2016-10-16T06:56:26.654Z,85
2016-10-16T06:57:07.499Z,95
2016-10-16T06:57:48.104Z,105
2016-10-16T06:58:29.008Z,155
2016-10-16T06:59:09.605Z,265
2016-10-16T06:59:50.460Z,335
2016-10-16T07:00:31.327Z,425
2016-10-16T07:01:12.089Z,415
2016-10-16T07:01:52.901Z,410
2016-10-16T07:02:33.592Z,415
2016-10-16T07:03:14.163Z,430
2016-10-16T07:03:54.920Z,465
2016-10-16T07:04:35.499Z,475
2016-10-16T07:05:16.066Z,470
2016-10-16T07:05:56.605Z,490
2016-10-16T07:06:37.181Z,505
2016-10-16T07:07:17.726Z,510
2016-10-16T07:07:58.303Z,510
2016-10-16T07:08:38.840Z,525
2016-10-16T07:09:19.429Z,515
2016-10-16T07:10:00.004Z,445
2016-10-16T07:10:40.570Z,335
2016-10-16T07:11:21.130Z,225
2016-10-16T07:12:01.708Z,165
2016-10-16T07:12:42.297Z,155
2016-10-16T07:13:22.884Z,145
2016-10-16T07:14:03.468Z,140
2016-10-16T07:14:44.048Z,25
2016-10-16T07:15:24.598Z,135
2016-10-16T07:16:05.121Z,105
2016-10-16T07:16:45.660Z,150
2016-10-16T07:17:26.202Z,150
2016-10-16T07:18:06.914Z,145
2016-10-16T07:18:47.445Z,140
2016-10-16T07:19:28.014Z,140
2016-10-16T07:20:08.769Z,145
2016-10-16T07:20:49.345Z,155
2016-10-16T07:21:29.926Z,205
2016-10-16T07:22:10.516Z,285
2016-10-16T07:22:51.080Z,305
2016-10-16T07:23:31.703Z,265
2016-10-16T07:24:12.368Z,255
2016-10-16T07:24:52.938Z,250
2016-10-16T07:25:33.568Z,200
2016-10-16T07:26:14.543Z,175
2016-10-16T07:26:55.255Z,165
2016-10-16T07:27:36.088Z,160
2016-10-16T07:28:16.654Z,160
2016-10-16T07:28:57.225Z,170
2016-10-16T07:29:38.122Z,215
2016-10-16T07:30:19.036Z,280
2016-10-16T07:30:59.728Z,275
2016-10-16T07:31:40.328Z,215
2016-10-16T07:32:20.944Z,175
2016-10-16T07:33:01.580Z,165
2016-10-16T07:33:42.212Z,165
2016-10-16T07:34:23.123Z,170
2016-10-16T07:35:03.914Z,180
2016-10-16T07:35:44.966Z,265
2016-10-16T07:36:25.687Z,440
2016-10-16T07:37:06.578Z,580
2016-10-16T07:37:47.280Z,600
2016-10-16T07:38:27.920Z,570
2016-10-16T07:39:08.543Z,560
2016-10-16T07:39:49.239Z,95
2016-10-16T07:40:29.981Z,555
2016-10-16T07:41:10.790Z,520
2016-10-16T07:41:51.438Z,430
2016-10-16T07:42:32.173Z,315
2016-10-16T07:43:12.761Z,230
2016-10-16T07:43:53.323Z,205
2016-10-16T07:44:34.198Z,210
2016-10-16T07:45:14.783Z,215
2016-10-16T07:45:55.650Z,230
2016-10-16T07:46:36.370Z,325
2016-10-16T07:47:17.194Z,490
2016-10-16T07:47:57.774Z,630
2016-10-16T07:48:38.574Z,670
2016-10-16T07:49:19.284Z,675
2016-10-16T07:50:00.111Z,675
2016-10-16T07:50:41.421Z,680
2016-10-16T07:51:22.237Z,685
2016-10-16T07:52:02.859Z,690
2016-10-16T07:52:43.915Z,675
2016-10-16T07:53:25.564Z,640
2016-10-16T07:54:06.524Z,525
2016-10-16T07:54:47.220Z,455
2016-10-16T07:55:27.953Z,445
2016-10-16T07:56:08.788Z,430
2016-10-16T07:56:49.587Z,325
2016-10-16T07:57:30.152Z,215
2016-10-16T07:58:10.751Z,165
2016-10-16T07:58:51.571Z,155
2016-10-16T07:59:32.298Z,155
2016-10-16T08:00:12.881Z,150
2016-10-16T08:00:53.461Z,150
2016-10-16T08:01:34.048Z,150
2016-10-16T08:02:14.631Z,150
2016-10-16T08:02:55.466Z,145
2016-10-16T08:03:36.403Z,145
2016-10-16T08:04:17.103Z,145
2016-10-16T08:04:57.684Z,145
2016-10-16T08:05:38.490Z,145
2016-10-16T08:06:19.406Z,145
2016-10-16T08:07:00.273Z,145
2016-10-16T08:07:40.835Z,145
2016-10-16T08:08:21.379Z,145
2016-10-16T08:09:01.952Z,145
2016-10-16T08:09:42.786Z,145
2016-10-16T08:10:23.618Z,145
2016-10-16T08:11:04.252Z,140
2016-10-16T08:11:44.833Z,140
2016-10-16T08:12:25.398Z,140
2016-10-16T08:13:05.980Z,140
2016-10-16T08:13:47.043Z,140
2016-10-16T08:14:27.587Z,140
2016-10-16T08:15:08.176Z,140
2016-10-16T08:15:48.850Z,140
2016-10-16T08:16:29.435Z,140
2016-10-16T08:17:10.075Z,135
2016-10-16T08:17:50.652Z,135
2016-10-16T08:18:31.235Z,135
2016-10-16T08:19:12.054Z,135
2016-10-16T08:19:52.635Z,135
2016-10-16T08:20:33.479Z,135
2016-10-16T08:21:14.107Z,135
2016-10-16T08:21:54.693Z,135
2016-10-16T08:22:35.266Z,135
2016-10-16T08:23:16.240Z,135
2016-10-16T08:23:57.051Z,135
2016-10-16T08:24:37.823Z,135
2016-10-16T08:25:18.387Z,130
2016-10-16T08:25:59.068Z,130
2016-10-16T08:26:39.886Z,130
2016-10-16T08:27:20.452Z,130
2016-10-16T08:28:01.096Z,130
2016-10-16T08:28:41.678Z,130
2016-10-16T08:29:22.267Z,130
2016-10-16T08:30:02.960Z,130
2016-10-16T08:30:44.001Z,130
2016-10-16T08:31:24.630Z,130
2016-10-16T08:32:05.440Z,130
2016-10-16T08:32:46.618Z,125
2016-10-16T08:33:27.211Z,125
2016-10-16T08:34:07.790Z,125
2016-10-16T08:34:48.370Z,125
2016-10-16T08:35:28.956Z,125
2016-10-16T08:36:09.543Z,130
2016-10-16T08:36:50.126Z,125
2016-10-16T08:37:30.711Z,125
2016-10-16T08:38:11.300Z,35
2016-10-16T08:38:52.126Z,35
2016-10-16T08:39:32.994Z,35
2016-10-16T08:40:13.853Z,45
2016-10-16T08:40:54.440Z,45
2016-10-16T08:41:35.139Z,45
2016-10-16T08:42:15.703Z,45
2016-10-16T08:42:56.501Z,45
2016-10-16T08:43:37.278Z,45
2016-10-16T08:44:17.855Z,45
2016-10-16T08:44:58.646Z,45
2016-10-16T08:45:39.629Z,45
2016-10-16T08:46:20.563Z,45
2016-10-16T08:47:01.326Z,45
2016-10-16T08:47:42.082Z,45
2016-10-16T08:48:23.355Z,45
2016-10-16T08:49:03.987Z,45
2016-10-16T08:49:44.517Z,45
2016-10-16T08:50:25.327Z,45
2016-10-16T08:51:05.971Z,45
2016-10-16T08:51:46.560Z,45
2016-10-16T08:52:27.265Z,40
2016-10-16T08:53:07.880Z,40
2016-10-16T08:53:48.709Z,40
2016-10-16T08:54:29.269Z,40
2016-10-16T08:55:10.055Z,40
2016-10-16T08:55:50.593Z,40
2016-10-16T08:56:31.292Z,40
2016-10-16T08:57:11.827Z,40
2016-10-16T08:57:52.375Z,40
2016-10-16T08:58:33.068Z,40
2016-10-16T08:59:13.841Z,40
2016-10-16T08:59:54.653Z,40
2016-10-16T09:00:35.221Z,40
2016-10-16T09:01:16.354Z,40
2016-10-16T09:01:57.167Z,40
2016-10-16T09:02:38.164Z,40
2016-10-16T09:03:18.705Z,40
2016-10-16T09:03:59.403Z,40
2016-10-16T09:04:40.004Z,40
2016-10-16T09:05:20.871Z,40
2016-10-16T09:06:01.416Z,35
2016-10-16T09:06:41.969Z,35
2016-10-16T09:07:22.521Z,35
2016-10-16T09:08:03.283Z,35
2016-10-16T09:08:44.288Z,35
2016-10-16T09:09:24.870Z,35
2016-10-16T09:10:05.607Z,35
2016-10-16T09:10:46.585Z,35
2016-10-16T09:11:27.498Z,35
2016-10-16T09:12:08.023Z,35
2016-10-16T09:12:48.567Z,35
2016-10-16T09:13:29.292Z,35
2016-10-16T09:14:10.088Z,35
2016-10-16T09:14:51.082Z,35
2016-10-16T09:15:31.710Z,35
2016-10-16T09:16:12.498Z,35
2016-10-16T09:16:53.079Z,35
2016-10-16T09:17:33.662Z,35
2016-10-16T09:18:14.328Z,35
2016-10-16T09:18:54.865Z,35
2016-10-16T09:19:35.590Z,35
2016-10-16T09:20:16.140Z,30
2016-10-16T09:20:56.724Z,30
2016-10-16T09:21:37.295Z,30
2016-10-16T09:22:17.884Z,30
2016-10-16T09:22:58.443Z,30
2016-10-16T09:23:38.999Z,30
2016-10-16T09:24:19.549Z,30
2016-10-16T09:25:00.139Z,30
2016-10-16T09:25:40.689Z,30
2016-10-16T09:26:21.327Z,30
2016-10-16T09:27:01.985Z,30
2016-10-16T09:27:43.075Z,25
2016-10-16T09:28:24.106Z,30
2016-10-16T09:29:04.979Z,30
2016-10-16T09:29:45.561Z,30
2016-10-16T09:30:26.390Z,30
2016-10-16T09:31:06.956Z,30
2016-10-16T09:31:47.541Z,25
2016-10-16T09:32:28.724Z,25
2016-10-16T09:33:09.463Z,25
2016-10-16T09:33:50.048Z,25
2016-10-16T09:34:30.749Z,25
2016-10-16T09:35:11.538Z,25
2016-10-16T09:35:52.185Z,25
2016-10-16T09:36:32.920Z,25
2016-10-16T09:37:13.496Z,25
2016-10-16T09:37:54.247Z,25
2016-10-16T09:38:34.828Z,25
2016-10-16T09:39:15.406Z,25
2016-10-16T09:39:56.158Z,25
2016-10-16T09:40:36.934Z,25
2016-10-16T09:41:17.703Z,25
2016-10-16T09:41:58.459Z,25
2016-10-16T09:42:39.029Z,25
2016-10-16T09:43:19.592Z,25
2016-10-16T09:44:00.177Z,20
2016-10-16T09:44:40.757Z,20
2016-10-16T09:45:21.332Z,20
2016-10-16T09:46:01.913Z,20
2016-10-16T09:46:42.490Z,20
2016-10-16T09:47:23.060Z,20
2016-10-16T09:48:03.649Z,20
2016-10-16T09:48:44.525Z,20
2016-10-16T09:49:25.229Z,20